createdAt,value
2018-05-24T00:01:00.504Z,4.63
2018-05-24T00:03:28.877Z,3.83
2018-05-24T00:05:57.252Z,4.40
2018-05-24T00:08:25.686Z,3.90
2018-05-24T00:10:54.083Z,3.40
2018-05-24T00:13:22.535Z,3.63
2018-05-24T00:15:50.894Z,3.73
2018-05-24T00:18:19.270Z,3.80
2018-05-24T00:20:47.629Z,3.27
2018-05-24T00:23:15.982Z,3.40
2018-05-24T00:25:44.328Z,3.27
2018-05-24T00:28:12.752Z,3.70
2018-05-24T00:30:41.096Z,3.07
2018-05-24T00:33:09.466Z,3.10
2018-05-24T00:35:37.820Z,3.10
2018-05-24T00:38:06.166Z,3.17
2018-05-24T00:40:34.588Z,3.03
2018-05-24T00:43:02.926Z,3.27
2018-05-24T00:45:31.272Z,3.00
2018-05-24T00:47:59.617Z,3.10
2018-05-24T00:50:27.957Z,2.73
2018-05-24T00:52:56.353Z,2.97
2018-05-24T00:55:36.323Z,3.23
2018-05-24T00:58:04.674Z,2.80
2018-05-24T01:00:33.027Z,3.43
2018-05-24T01:03:01.436Z,2.60
2018-05-24T01:05:29.878Z,3.10
2018-05-24T01:07:58.233Z,2.93
2018-05-24T01:10:26.626Z,3.13
2018-05-24T01:12:54.976Z,3.17
2018-05-24T01:15:23.411Z,3.10
2018-05-24T01:17:51.781Z,3.30
2018-05-24T01:20:20.141Z,3.20
2018-05-24T01:22:48.526Z,3.37
2018-05-24T01:25:16.927Z,3.13
2018-05-24T01:27:45.305Z,3.47
2018-05-24T01:30:13.673Z,3.17
2018-05-24T01:32:42.019Z,3.60
2018-05-24T01:35:10.356Z,3.47
2018-05-24T01:37:49.502Z,3.30
2018-05-24T01:40:18.040Z,4.10
2018-05-24T01:42:47.324Z,3.77
2018-05-24T01:45:15.726Z,3.70
2018-05-24T01:47:44.100Z,3.90
2018-05-24T01:50:12.546Z,4.00
2018-05-24T01:52:40.966Z,4.20
2018-05-24T01:55:09.447Z,4.10
2018-05-24T01:57:37.836Z,4.60
2018-05-24T02:00:06.193Z,4.33
2018-05-24T02:02:34.554Z,4.20
2018-05-24T02:05:02.905Z,4.50
2018-05-24T02:07:31.411Z,4.57
2018-05-24T02:09:59.838Z,5.40
2018-05-24T02:12:28.197Z,5.00
2018-05-24T02:14:56.560Z,4.53
2018-05-24T02:17:25.831Z,5.03
2018-05-24T02:19:54.186Z,5.13
2018-05-24T02:22:22.617Z,5.30
2018-05-24T02:24:50.976Z,4.70
2018-05-24T02:27:19.436Z,4.93
2018-05-24T02:29:47.798Z,5.13
2018-05-24T02:32:16.193Z,4.20
2018-05-24T02:34:44.603Z,5.30
2018-05-24T02:37:13.021Z,5.67
2018-05-24T02:39:41.466Z,4.47
2018-05-24T02:42:13.646Z,5.10
2018-05-24T02:44:42.074Z,5.10
2018-05-24T02:47:10.528Z,4.53
2018-05-24T02:49:38.880Z,4.60
2018-05-24T02:52:07.305Z,4.77
2018-05-24T02:54:35.701Z,5.20
2018-05-24T02:57:04.089Z,4.70
2018-05-24T02:59:32.512Z,4.87
2018-05-24T03:02:01.871Z,4.63
2018-05-24T03:04:30.265Z,4.27
2018-05-24T03:06:58.654Z,4.40
2018-05-24T03:09:27.107Z,4.57
2018-05-24T03:11:55.527Z,4.67
2018-05-24T03:14:24.052Z,5.03
2018-05-24T03:16:52.510Z,5.20
2018-05-24T03:19:21.015Z,5.03
2018-05-24T03:21:49.430Z,5.40
2018-05-24T03:24:17.853Z,4.90
2018-05-24T03:26:46.285Z,5.30
2018-05-24T03:29:14.709Z,4.97
2018-05-24T03:31:43.175Z,5.57
2018-05-24T03:34:11.645Z,4.93
2018-05-24T03:36:40.027Z,5.43
2018-05-24T03:39:08.466Z,4.53
2018-05-24T03:41:36.848Z,4.73
2018-05-24T03:44:05.235Z,5.00
2018-05-24T03:46:33.641Z,5.10
2018-05-24T03:49:02.083Z,4.73
2018-05-24T03:51:31.536Z,5.60
2018-05-24T03:53:59.902Z,5.40
2018-05-24T03:56:28.392Z,5.17
2018-05-24T03:59:01.216Z,4.90
2018-05-24T04:04:44.492Z,4.73
2018-05-24T04:07:13.545Z,5.17
2018-05-24T04:09:41.949Z,5.40
2018-05-24T04:12:10.401Z,5.00
2018-05-24T04:14:38.772Z,4.83
2018-05-24T04:17:07.194Z,5.27
2018-05-24T04:19:35.645Z,5.40
2018-05-24T04:22:04.036Z,5.83
2018-05-24T04:24:32.452Z,5.67
2018-05-24T04:27:00.867Z,6.00
2018-05-24T04:29:29.356Z,5.27
2018-05-24T04:31:57.807Z,6.17
2018-05-24T04:34:26.316Z,6.30
2018-05-24T04:36:54.746Z,5.47
2018-05-24T04:39:23.158Z,6.23
2018-05-24T04:41:51.646Z,6.23
2018-05-24T04:44:20.134Z,6.07
2018-05-24T04:46:48.539Z,6.33
2018-05-24T04:49:17.019Z,5.27
2018-05-24T04:51:45.416Z,5.93
2018-05-24T04:54:13.812Z,6.63
2018-05-24T04:56:42.249Z,7.10
2018-05-24T04:59:10.659Z,6.50
2018-05-24T05:01:39.103Z,6.53
2018-05-24T05:04:07.553Z,7.33
2018-05-24T05:06:35.948Z,7.83
2018-05-24T05:09:07.045Z,7.23
2018-05-24T05:11:35.415Z,7.37
2018-05-24T05:14:03.802Z,8.77
2018-05-24T05:16:32.196Z,7.80
2018-05-24T05:19:00.561Z,8.30
2018-05-24T05:21:29.044Z,8.20
2018-05-24T05:23:57.503Z,7.80
2018-05-24T05:26:25.979Z,8.07
2018-05-24T05:28:54.450Z,8.90
2018-05-24T05:31:22.843Z,8.03
2018-05-24T05:33:51.368Z,7.93
2018-05-24T05:36:19.763Z,7.30
2018-05-24T05:38:48.271Z,8.73
2018-05-24T05:41:16.677Z,8.17
2018-05-24T05:43:45.125Z,7.93
2018-05-24T05:46:13.627Z,9.27
2018-05-24T05:48:42.039Z,9.50
2018-05-24T05:51:10.449Z,8.70
2018-05-24T05:53:38.905Z,8.53
2018-05-24T05:56:08.256Z,9.87
2018-05-24T05:58:36.706Z,9.97
2018-05-24T06:01:05.177Z,10.20
2018-05-24T06:03:33.579Z,9.20
2018-05-24T06:06:01.978Z,9.70
2018-05-24T06:08:30.384Z,9.40
2018-05-24T06:10:58.919Z,11.40
2018-05-24T06:13:27.339Z,10.40
2018-05-24T06:15:55.749Z,11.40
2018-05-24T06:18:24.181Z,10.83
2018-05-24T06:20:53.642Z,11.47
2018-05-24T06:23:22.161Z,10.77
2018-05-24T06:25:50.525Z,10.97
2018-05-24T06:28:19.009Z,10.67
2018-05-24T06:30:47.389Z,9.57
2018-05-24T06:33:15.749Z,8.97
2018-05-24T06:35:44.162Z,8.40
2018-05-24T06:38:12.577Z,8.43
2018-05-24T06:40:40.942Z,8.17
2018-05-24T06:43:09.365Z,8.63
2018-05-24T06:45:37.712Z,7.40
2018-05-24T06:48:06.135Z,7.60
2018-05-24T06:50:34.552Z,7.83
2018-05-24T06:53:02.895Z,6.87
2018-05-24T06:55:33.199Z,7.30
2018-05-24T06:58:01.582Z,7.50
2018-05-24T07:00:29.938Z,7.63
2018-05-24T07:02:58.293Z,7.93
2018-05-24T07:05:26.714Z,8.40
2018-05-24T07:07:55.123Z,8.13
2018-05-24T07:10:23.569Z,9.23
2018-05-24T07:12:52.090Z,9.80
2018-05-24T07:15:20.451Z,9.80
2018-05-24T07:17:48.857Z,10.20
2018-05-24T07:20:17.229Z,10.20
2018-05-24T07:22:45.596Z,11.67
2018-05-24T07:25:13.976Z,10.80
2018-05-24T07:27:43.317Z,12.07
2018-05-24T07:30:11.746Z,10.87
2018-05-24T07:32:40.170Z,11.73
2018-05-24T07:35:08.547Z,11.73
2018-05-24T07:37:37.034Z,11.47
2018-05-24T07:40:05.447Z,11.87
2018-05-24T07:42:33.869Z,11.70
2018-05-24T07:45:02.272Z,12.40
2018-05-24T07:47:30.698Z,11.67
2018-05-24T07:49:59.097Z,11.50
2018-05-24T07:52:27.485Z,11.23
2018-05-24T07:54:55.877Z,12.00
2018-05-24T07:57:24.217Z,11.13
2018-05-24T07:59:52.686Z,11.80
2018-05-24T08:02:21.066Z,11.23
2018-05-24T08:04:49.446Z,10.67
2018-05-24T08:07:17.881Z,9.93
2018-05-24T08:09:46.250Z,9.03
2018-05-24T08:12:14.642Z,9.00
2018-05-24T08:14:43.089Z,8.27
2018-05-24T08:17:11.387Z,8.00
2018-05-24T08:19:39.734Z,7.37
2018-05-24T08:22:08.099Z,7.60
2018-05-24T08:24:36.575Z,7.33
2018-05-24T08:27:05.013Z,7.73
2018-05-24T08:29:33.385Z,7.30
2018-05-24T08:32:01.761Z,7.60
2018-05-24T08:34:30.096Z,7.90
2018-05-24T08:36:58.539Z,7.50
2018-05-24T08:39:26.932Z,8.70
2018-05-24T08:41:55.347Z,8.23
2018-05-24T08:44:23.713Z,9.17
2018-05-24T08:46:52.089Z,7.80
2018-05-24T08:49:20.450Z,8.30
2018-05-24T08:51:48.820Z,8.93
2018-05-24T08:54:17.276Z,9.47
2018-05-24T08:56:45.656Z,9.50
2018-05-24T08:59:14.035Z,9.37
2018-05-24T09:01:42.699Z,9.40
2018-05-24T09:04:11.249Z,10.10
2018-05-24T09:06:39.882Z,9.90
2018-05-24T09:09:08.333Z,10.90
2018-05-24T09:11:36.635Z,11.00
2018-05-24T09:14:04.992Z,12.57
2018-05-24T09:16:33.611Z,11.60
2018-05-24T09:19:01.970Z,11.90
2018-05-24T09:21:30.367Z,11.47
2018-05-24T09:23:58.839Z,13.10
2018-05-24T09:26:27.195Z,13.00
2018-05-24T09:28:55.594Z,13.13
2018-05-24T09:31:23.987Z,13.43
2018-05-24T09:33:52.374Z,12.20
2018-05-24T09:36:20.833Z,11.90
2018-05-24T09:38:49.305Z,12.83
2018-05-24T09:41:17.673Z,12.90
2018-05-24T09:43:46.055Z,12.30
2018-05-24T09:46:14.440Z,11.33
2018-05-24T09:48:42.973Z,10.90
2018-05-24T09:51:11.399Z,11.40
2018-05-24T09:53:39.873Z,11.47
2018-05-24T09:56:08.280Z,12.37
2018-05-24T09:58:36.670Z,12.50
2018-05-24T10:01:05.084Z,12.30
2018-05-24T10:03:33.481Z,11.30
2018-05-24T10:06:01.943Z,13.00
2018-05-24T10:08:33.712Z,14.00
2018-05-24T10:11:03.205Z,14.07
2018-05-24T10:13:31.640Z,12.33
2018-05-24T10:16:01.260Z,12.77
2018-05-24T10:18:29.704Z,13.60
2018-05-24T10:20:58.268Z,12.87
2018-05-24T10:23:27.820Z,11.43
2018-05-24T10:25:56.238Z,11.10
2018-05-24T10:28:24.689Z,10.47
2018-05-24T10:30:53.115Z,10.60
2018-05-24T10:33:22.457Z,10.30
2018-05-24T10:35:50.839Z,13.10
2018-05-24T10:38:19.230Z,12.50
2018-05-24T10:40:47.612Z,13.20
2018-05-24T10:43:16.014Z,14.63
2018-05-24T10:45:44.420Z,13.70
2018-05-24T10:48:12.824Z,13.70
2018-05-24T10:50:41.228Z,14.33
2018-05-24T10:53:08.885Z,16.17
2018-05-24T10:55:41.843Z,15.00
2018-05-24T10:58:10.270Z,15.87
2018-05-24T11:00:38.715Z,15.67
2018-05-24T11:03:07.211Z,15.87
2018-05-24T11:05:35.655Z,13.93
2018-05-24T11:08:04.035Z,12.27
2018-05-24T11:10:32.481Z,12.37
2018-05-24T11:13:01.953Z,10.83
2018-05-24T11:15:30.425Z,10.50
2018-05-24T11:17:58.850Z,9.43
2018-05-24T11:20:28.545Z,8.40
2018-05-24T11:22:56.933Z,7.60
2018-05-24T11:25:25.325Z,7.83
2018-05-24T11:27:53.768Z,10.40
2018-05-24T11:30:23.214Z,10.87
2018-05-24T11:32:51.697Z,14.97
2018-05-24T11:35:20.118Z,16.00
2018-05-24T11:37:48.594Z,18.17
2018-05-24T11:40:17.049Z,18.93
2018-05-24T11:42:45.465Z,20.50
2018-05-24T11:45:13.891Z,22.80
2018-05-24T11:47:43.354Z,24.33
2018-05-24T11:50:12.699Z,23.87
2018-05-24T11:52:41.249Z,26.10
2018-05-24T11:55:09.677Z,24.77
2018-05-24T11:57:38.082Z,24.50
2018-05-24T12:00:06.496Z,26.50
2018-05-24T12:02:34.916Z,26.40
2018-05-24T12:05:03.391Z,27.40
2018-05-24T12:07:31.825Z,26.57
2018-05-24T12:10:00.291Z,26.33
2018-05-24T12:12:28.700Z,25.57
2018-05-24T12:14:57.109Z,26.57
2018-05-24T12:17:25.594Z,25.53
2018-05-24T12:19:54.001Z,27.30
2018-05-24T12:22:22.391Z,26.63
2018-05-24T12:24:50.810Z,25.43
2018-05-24T12:27:19.187Z,26.83
2018-05-24T12:29:47.655Z,25.40
2018-05-24T12:32:16.171Z,24.17
2018-05-24T12:34:44.578Z,23.77
2018-05-24T12:37:13.005Z,23.13
2018-05-24T12:39:41.432Z,25.53
2018-05-24T12:42:09.881Z,27.00
2018-05-24T12:44:38.337Z,25.80
2018-05-24T12:47:06.745Z,27.03
2018-05-24T12:49:35.196Z,26.30
2018-05-24T12:52:03.626Z,26.70
2018-05-24T12:54:32.067Z,26.07
2018-05-24T12:57:00.491Z,27.30
2018-05-24T12:59:28.978Z,29.23
2018-05-24T13:01:57.392Z,29.73
2018-05-24T13:04:25.827Z,28.70
2018-05-24T13:06:54.225Z,29.87
2018-05-24T13:09:22.722Z,29.67
2018-05-24T13:11:51.141Z,30.03
2018-05-24T13:14:19.529Z,31.90
2018-05-24T13:16:48.071Z,29.90
2018-05-24T13:19:16.496Z,32.40
2018-05-24T13:21:44.920Z,31.70
2018-05-24T13:24:13.319Z,29.60
2018-05-24T13:26:41.746Z,31.43
2018-05-24T13:29:10.240Z,28.83
2018-05-24T13:31:38.628Z,28.63
2018-05-24T13:34:07.053Z,29.30
2018-05-24T13:36:35.473Z,30.50
2018-05-24T13:39:04.150Z,29.37
2018-05-24T13:41:32.699Z,28.40
2018-05-24T13:44:01.131Z,28.67
2018-05-24T13:46:29.586Z,27.87
2018-05-24T13:48:58.112Z,31.57
2018-05-24T13:51:26.591Z,28.87
2018-05-24T13:53:55.262Z,28.30
2018-05-24T13:56:23.746Z,26.73
2018-05-24T13:58:52.295Z,27.97
2018-05-24T14:01:20.797Z,30.70
2018-05-24T14:03:49.338Z,28.83
2018-05-24T14:06:17.924Z,30.00
2018-05-24T14:08:46.358Z,29.87
2018-05-24T14:11:14.967Z,30.90
2018-05-24T14:13:43.522Z,30.30
2018-05-24T14:16:12.014Z,30.23
2018-05-24T14:18:40.581Z,32.40
2018-05-24T14:21:09.168Z,29.10
2018-05-24T14:23:37.703Z,27.93
2018-05-24T14:26:06.247Z,27.40
2018-05-24T14:28:34.649Z,27.60
2018-05-24T14:31:03.159Z,26.57
2018-05-24T14:33:31.776Z,25.83
2018-05-24T14:36:00.276Z,28.80
2018-05-24T14:38:28.733Z,26.93
2018-05-24T14:40:57.277Z,25.90
2018-05-24T14:43:25.782Z,28.10
2018-05-24T14:45:54.341Z,27.27
2018-05-24T14:48:22.952Z,29.50
2018-05-24T14:50:51.425Z,27.20
2018-05-24T14:53:19.911Z,28.67
2018-05-24T14:55:48.533Z,27.70
2018-05-24T14:58:16.951Z,25.90
2018-05-24T15:00:45.539Z,28.97
2018-05-24T15:03:13.908Z,26.83
2018-05-24T15:05:42.356Z,26.83
2018-05-24T15:08:10.956Z,26.33
2018-05-24T15:10:39.526Z,28.13
2018-05-24T15:13:07.975Z,29.80
2018-05-24T15:15:36.472Z,32.27
2018-05-24T15:18:04.942Z,30.10
2018-05-24T15:20:33.526Z,32.00
2018-05-24T15:23:03.004Z,30.80
2018-05-24T15:25:31.540Z,31.20
2018-05-24T15:28:00.203Z,32.03
2018-05-24T15:30:28.727Z,32.10
2018-05-24T15:32:57.307Z,34.77
2018-05-24T15:35:25.932Z,33.40
2018-05-24T15:37:54.600Z,33.50
2018-05-24T15:40:23.028Z,34.70
2018-05-24T15:42:54.333Z,34.60
2018-05-24T15:45:22.836Z,33.93
2018-05-24T15:47:51.368Z,37.43
2018-05-24T15:50:20.032Z,35.30
2018-05-24T15:52:48.579Z,37.37
2018-05-24T15:55:17.112Z,38.10
2018-05-24T15:57:45.608Z,36.63
2018-05-24T16:00:14.178Z,37.03
2018-05-24T16:02:42.999Z,38.10
2018-05-24T16:05:11.662Z,38.43
2018-05-24T16:07:40.356Z,37.60
2018-05-24T16:10:08.945Z,39.10
2018-05-24T16:12:37.445Z,38.23
2018-05-24T16:15:05.962Z,37.47
2018-05-24T16:17:34.457Z,35.40
2018-05-24T16:20:03.076Z,37.17
2018-05-24T16:22:31.638Z,35.30
2018-05-24T16:25:01.096Z,36.77
2018-05-24T16:27:29.814Z,35.93
2018-05-24T16:29:58.351Z,36.10
2018-05-24T16:32:26.931Z,37.33
2018-05-24T16:34:56.438Z,32.90
2018-05-24T16:37:25.506Z,34.10
2018-05-24T16:39:54.576Z,35.43
2018-05-24T16:42:23.248Z,35.77
2018-05-24T16:44:51.922Z,35.07
2018-05-24T16:47:20.379Z,34.47
2018-05-24T16:49:48.842Z,36.63
2018-05-24T16:52:17.408Z,35.97
2018-05-24T16:54:45.947Z,36.40
2018-05-24T16:57:14.422Z,36.83
2018-05-24T16:59:43.763Z,35.10
2018-05-24T17:02:13.846Z,38.00
2018-05-24T17:04:44.819Z,38.67
2018-05-24T17:07:16.006Z,37.70
2018-05-24T17:09:45.072Z,39.50
2018-05-24T17:12:13.514Z,37.47
2018-05-24T17:14:44.091Z,38.80
2018-05-24T17:17:12.773Z,39.10
2018-05-24T17:19:41.277Z,37.63
2018-05-24T17:22:09.839Z,38.10
2018-05-24T17:24:38.285Z,39.47
2018-05-24T17:27:06.932Z,41.17
2018-05-24T17:29:35.345Z,39.43
2018-05-24T17:32:04.856Z,39.07
2018-05-24T17:34:33.338Z,38.17
2018-05-24T17:37:01.790Z,38.33
2018-05-24T17:39:30.328Z,39.30
2018-05-24T17:41:59.947Z,39.73
2018-05-24T17:44:30.587Z,41.63
2018-05-24T17:46:59.392Z,40.80
2018-05-24T17:49:27.880Z,41.97
2018-05-24T17:51:56.354Z,40.27
2018-05-24T17:54:24.838Z,42.50
2018-05-24T17:56:53.389Z,40.93
2018-05-24T17:59:21.778Z,40.37
2018-05-24T18:01:50.245Z,40.10
2018-05-24T18:04:18.764Z,41.70
2018-05-24T18:06:47.263Z,40.43
2018-05-24T18:09:15.782Z,39.80
2018-05-24T18:11:44.200Z,41.00
2018-05-24T18:14:12.724Z,40.73
2018-05-24T18:16:41.181Z,41.23
2018-05-24T18:19:09.741Z,42.30
2018-05-24T18:21:38.287Z,41.10
2018-05-24T18:24:06.724Z,41.87
2018-05-24T18:26:35.253Z,40.80
2018-05-24T18:29:04.670Z,42.33
2018-05-24T18:31:33.079Z,39.77
2018-05-24T18:34:01.505Z,41.87
2018-05-24T18:36:30.027Z,42.67
2018-05-24T18:38:58.721Z,42.80
2018-05-24T18:41:27.419Z,41.00
2018-05-24T18:43:55.983Z,41.77
2018-05-24T18:46:25.592Z,41.23
2018-05-24T18:48:54.057Z,43.47
2018-05-24T18:51:22.580Z,41.50
2018-05-24T18:53:51.337Z,37.37
2018-05-24T18:56:19.762Z,38.93
2018-05-24T18:58:48.186Z,36.50
2018-05-24T19:01:16.717Z,35.40
2018-05-24T19:03:45.142Z,37.77
2018-05-24T19:06:13.605Z,35.67
2018-05-24T19:08:42.030Z,35.77
2018-05-24T19:11:10.530Z,34.80
2018-05-24T19:13:39.037Z,35.03
2018-05-24T19:16:07.630Z,35.17
2018-05-24T19:18:36.186Z,35.83
2018-05-24T19:21:04.634Z,34.77
2018-05-24T19:23:33.126Z,35.43
2018-05-24T19:26:01.535Z,34.73
2018-05-24T19:28:30.072Z,32.93
2018-05-24T19:30:59.848Z,33.23
2018-05-24T19:33:28.448Z,32.80
2018-05-24T19:35:57.037Z,33.87
2018-05-24T19:38:27.509Z,31.50
2018-05-24T19:40:56.026Z,30.40
2018-05-24T19:43:24.444Z,31.10
2018-05-24T19:45:52.991Z,31.03
2018-05-24T19:48:22.050Z,31.53
2018-05-24T19:50:50.822Z,31.80
2018-05-24T19:53:19.708Z,29.63
2018-05-24T19:55:48.588Z,33.17
2018-05-24T19:58:17.215Z,30.70
2018-05-24T20:00:45.788Z,31.80
2018-05-24T20:03:14.277Z,30.97
2018-05-24T20:05:42.813Z,30.40
2018-05-24T20:08:11.242Z,29.97
2018-05-24T20:10:39.845Z,29.30
2018-05-24T20:13:24.625Z,29.37
2018-05-24T20:15:53.045Z,29.60
2018-05-24T20:18:21.483Z,31.10
2018-05-24T20:20:50.015Z,30.30
2018-05-24T20:23:18.515Z,29.47
2018-05-24T20:25:47.063Z,28.90
2018-05-24T20:28:15.449Z,29.43
2018-05-24T20:30:43.853Z,31.20
2018-05-24T20:33:12.310Z,28.60
2018-05-24T20:35:40.737Z,29.30
2018-05-24T20:38:09.461Z,30.30
2018-05-24T20:40:37.930Z,29.60
2018-05-24T20:43:06.386Z,29.77
2018-05-24T20:45:34.818Z,31.70
2018-05-24T20:48:03.269Z,30.23
2018-05-24T20:50:31.842Z,31.27
2018-05-24T20:53:00.347Z,32.20
2018-05-24T20:55:28.837Z,32.60
2018-05-24T20:57:57.223Z,32.30
2018-05-24T21:00:25.750Z,31.73
2018-05-24T21:02:54.271Z,32.07
2018-05-24T21:05:22.740Z,30.37
2018-05-24T21:07:51.186Z,32.53
2018-05-24T21:10:19.711Z,34.87
2018-05-24T21:12:48.178Z,34.27
2018-05-24T21:15:16.633Z,33.93
2018-05-24T21:17:45.118Z,33.77
2018-05-24T21:20:14.534Z,34.83
2018-05-24T21:22:42.889Z,34.00
2018-05-24T21:25:11.399Z,36.70
2018-05-24T21:27:39.874Z,37.70
2018-05-24T21:30:08.313Z,33.67
2018-05-24T21:32:36.750Z,34.60
2018-05-24T21:35:05.131Z,33.27
2018-05-24T21:37:33.496Z,33.90
2018-05-24T21:40:02.915Z,33.50
2018-05-24T21:42:31.365Z,31.20
2018-05-24T21:44:59.742Z,31.07
2018-05-24T21:47:28.147Z,28.40
2018-05-24T21:49:56.605Z,29.53
2018-05-24T21:52:24.997Z,30.90
2018-05-24T21:54:53.380Z,30.93
2018-05-24T21:57:21.738Z,31.70
2018-05-24T21:59:50.168Z,30.57
2018-05-24T22:02:18.592Z,31.97
2018-05-24T22:04:46.969Z,31.20
2018-05-24T22:07:15.335Z,31.43
2018-05-24T22:09:43.735Z,33.03
2018-05-24T22:12:12.111Z,33.30
2018-05-24T22:14:40.609Z,31.40
2018-05-24T22:17:09.134Z,31.97
2018-05-24T22:19:37.441Z,31.80
2018-05-24T22:22:05.889Z,33.30
2018-05-24T22:24:34.274Z,34.03
2018-05-24T22:27:02.637Z,35.43
2018-05-24T22:29:31.088Z,34.37
2018-05-24T22:32:03.280Z,34.03
2018-05-24T22:34:32.454Z,33.30
2018-05-24T22:37:00.888Z,34.10
2018-05-24T22:39:29.294Z,34.30
2018-05-24T22:41:57.662Z,32.03
2018-05-24T22:44:26.044Z,33.53
2018-05-24T22:46:54.433Z,32.23
2018-05-24T22:49:22.804Z,31.50
2018-05-24T22:51:51.331Z,31.90
2018-05-24T22:54:19.735Z,31.30
2018-05-24T22:56:48.109Z,31.00
2018-05-24T22:59:16.607Z,33.47
2018-05-24T23:01:48.442Z,32.07
2018-05-24T23:04:16.916Z,28.40
2018-05-24T23:06:45.342Z,29.50
2018-05-24T23:09:13.827Z,29.60
2018-05-24T23:11:42.184Z,28.27
2018-05-24T23:14:10.619Z,28.17
2018-05-24T23:16:39.104Z,29.63
2018-05-24T23:19:07.543Z,29.50
2018-05-24T23:21:35.965Z,28.73
2018-05-24T23:24:04.352Z,31.50
2018-05-24T23:26:32.706Z,29.43
2018-05-24T23:29:01.085Z,30.80
2018-05-24T23:31:29.498Z,28.53
2018-05-24T23:33:58.068Z,28.70
2018-05-24T23:36:26.500Z,26.80
2018-05-24T23:38:54.860Z,28.00
2018-05-24T23:41:23.399Z,28.37
2018-05-24T23:43:51.869Z,28.63
2018-05-24T23:46:20.225Z,29.77
2018-05-24T23:48:49.410Z,27.37
2018-05-24T23:51:17.804Z,29.60
2018-05-24T23:53:46.175Z,29.13
2018-05-24T23:56:14.604Z,28.80
2018-05-24T23:58:43.103Z,27.17
